Catàleg de serveis del Meteocat

Dades de l'estació automàtica Port de Barcelona - Bocana Sud

?
?
Resum diari 20:30 TU
Dades diàries de l'estació meteorològica
Ratxa màxima del vent (10 m) 30.2 km/h - 84º 17:36 TU

El tram horari està expressat en Temps Universal (TU). Cal sumar una hora en horari d'hivern i dues en horari d'estiu per passar a l'hora oficial.

Port de Barcelona - Bocana Sud

Metadades estació meteorol´gica
Municipi El Prat de Llobregat
Comarca Baix Llobregat
Altitud 3 m
Data alta 08.04.2015
Estat actual Operativa
Dades de període
Període
TU
VVM (10 m)
km/h
DVM (10 m)
graus
VVX (10 m)
km/h
00:00 - 00:30 11.9 265 14.8
00:30 - 01:00 11.5 270 15.5
01:00 - 01:30 7.9 278 11.9
01:30 - 02:00 10.1 275 12.6
02:00 - 02:30 11.5 276 14.4
02:30 - 03:00 15.1 283 20.9
03:00 - 03:30 18.4 284 24.1
03:30 - 04:00 19.8 283 23.4
04:00 - 04:30 19.4 286 26.6
04:30 - 05:00 19.4 288 23.0
05:00 - 05:30 19.8 287 24.1
05:30 - 06:00 20.2 288 26.3
06:00 - 06:30 18.4 289 25.2
06:30 - 07:00 15.1 295 22.3
07:00 - 07:30 11.2 280 15.5
07:30 - 08:00 14.0 286 17.3
08:00 - 08:30 11.5 290 15.8
08:30 - 09:00 12.2 290 17.3
09:00 - 09:30 15.1 290 18.7
09:30 - 10:00 13.0 290 17.3
10:00 - 10:30 7.9 286 12.2
10:30 - 11:00 7.6 284 13.0
11:00 - 11:30 5.8 288 10.1
11:30 - 12:00 4.7 288 8.6
12:00 - 12:30 1.8 340 6.5
12:30 - 13:00 1.1 154 3.6
13:00 - 13:30 4.7 66 10.1
13:30 - 14:00 7.2 60 9.7
14:00 - 14:30 5.0 112 9.4
14:30 - 15:00 6.1 107 12.2
15:00 - 15:30 12.6 69 16.2
15:30 - 16:00 10.4 58 16.6
16:00 - 16:30 10.4 47 14.8
16:30 - 17:00 9.7 29 14.4
17:00 - 17:30 19.4 82 29.2
17:30 - 18:00 23.8 87 30.2
18:00 - 18:30 22.0 90 27.4
18:30 - 19:00 15.8 109 24.5
19:00 - 19:30 7.9 128 17.3
19:30 - 20:00 5.0 183 15.5
20:00 - 20:30 15.1 263 18.7
20:30 - 21:00 13.0 294 19.8
21:00 - 21:30 (s/d) (s/d) (s/d)

Les dades en taronja només han passat un control de qualitat automàtic. Resta pendent la seva validació definitiva.